Flugplatz Saarbrücken

Bericht für EDDR

vom 07.03. um 02:20 UTC

Wind 8 kt aus 60°

Sichtweite 10 km oder mehr

gute Sicht, keine Wolken < 5000 ft, keine CB, keine Wettererscheinungen (CAVOK)

Temperatur -1.0°C

Taupunkt -8.0°C

Luftfeuchtigkeit 59%

Luftdruck 1024 hPa

EDDR 070220Z 06008KT CAVOK M01/M08 Q1024

Prognose für EDDR

vom 06.03. um 23:00 UTC

Zwischen 00:00 UTC und 00:00 UTC

Wind 7 kt aus 40°

Sichtweite 10 km oder mehr

keine signifikanten Wettererscheinungen

keine Wolken

TAF EDDR 062300Z 0700/0724 04007KT CAVOK
Impressum